Time;durP1;ratioP1;P1;durP2;ratioP2;P2;SDS_P1;SDS_P2;PMS_P1;PMS_P2;Temp;Humidity;BMP_temperature;BMP_pressure;BME280_temperature;BME280_humidity;BME280_pressure;Samples;Min_cycle;Max_cycle;Signal;HPM_P1;HPM_P2
2023/05/16 00:02:01;;;;;;;6.00;2.00;;;;;;;21.52;35.66;99560.67;104717;1276;59899;-63
2023/05/16 00:04:28;;;;;;;6.90;1.70;;;;;;;21.51;35.79;99557.41;104772;1260;60183;-61
2023/05/16 00:06:55;;;;;;;2.30;1.90;;;;;;;21.50;35.83;99555.73;104773;1254;72682;-60
2023/05/16 00:09:23;;;;;;;2.50;1.90;;;;;;;21.52;35.66;99556.38;104741;1254;71632;-61
2023/05/16 00:11:50;;;;;;;2.30;2.20;;;;;;;21.56;35.61;99555.38;104214;1273;72715;-61
2023/05/16 00:14:18;;;;;;;2.10;1.90;;;;;;;21.54;35.82;99562.44;104417;1268;60677;-61
2023/05/16 00:16:46;;;;;;;2.00;1.90;;;;;;;21.58;35.44;99560.14;104566;1254;59755;-62
2023/05/16 00:19:14;;;;;;;4.50;2.30;;;;;;;21.96;35.34;99558.44;104524;1257;73466;-61
2023/05/16 00:21:43;;;;;;;2.20;2.00;;;;;;;22.41;34.81;99559.05;104604;1254;69927;-61
2023/05/16 00:24:11;;;;;;;2.20;1.70;;;;;;;22.44;34.19;99562.11;107965;1254;75117;-61
2023/05/16 00:26:38;;;;;;;5.30;1.80;;;;;;;22.43;34.33;99564.54;106220;1258;60902;-62
2023/05/16 00:29:05;;;;;;;2.10;1.90;;;;;;;22.30;34.70;99563.79;104649;1254;60180;-61
2023/05/16 00:31:33;;;;;;;2.60;2.00;;;;;;;21.56;35.77;99572.20;104695;1257;73913;-61
2023/05/16 00:34:00;;;;;;;2.80;2.10;;;;;;;21.69;35.93;99570.39;104573;1260;69725;-61
2023/05/16 00:36:27;;;;;;;6.60;2.00;;;;;;;21.50;35.98;99571.01;104843;1257;73283;-61
2023/05/16 00:38:55;;;;;;;3.30;2.00;;;;;;;21.47;36.36;99571.66;104558;1255;60804;-61
2023/05/16 00:41:22;;;;;;;2.50;2.30;;;;;;;21.58;36.00;99567.24;104396;1257;60086;-61
2023/05/16 00:43:49;;;;;;;4.20;2.00;;;;;;;21.46;36.13;99562.63;104289;1260;73544;-61
2023/05/16 00:46:16;;;;;;;4.90;2.60;;;;;;;21.53;35.89;99559.52;104319;1259;70532;-61
2023/05/16 00:48:44;;;;;;;2.40;2.00;;;;;;;21.47;36.23;99559.45;104336;1269;73150;-61
2023/05/16 00:51:11;;;;;;;2.70;2.00;;;;;;;21.73;35.56;99558.64;104372;1273;61531;-61
2023/05/16 00:53:38;;;;;;;5.50;2.20;;;;;;;21.36;36.29;99559.23;104534;1254;60490;-61
2023/05/16 00:56:06;;;;;;;3.60;2.30;;;;;;;21.29;36.46;99559.31;104547;1257;73195;-61
2023/05/16 00:58:33;;;;;;;3.70;2.10;;;;;;;21.21;36.80;99556.44;104338;1270;70084;-61
2023/05/16 01:01:02;;;;;;;2.80;2.20;;;;;;;21.17;36.56;99561.61;104091;1276;73096;-61
2023/05/16 01:03:30;;;;;;;2.60;2.20;;;;;;;21.16;36.86;99560.63;104475;1261;60606;-61
2023/05/16 01:05:58;;;;;;;3.60;1.80;;;;;;;21.19;36.67;99561.95;104274;1255;60678;-60
2023/05/16 01:08:25;;;;;;;2.60;2.30;;;;;;;21.15;36.83;99566.55;104461;1257;73618;-61
2023/05/16 01:11:06;;;;;;;4.10;2.10;;;;;;;21.19;36.52;99561.05;104264;1269;70019;-61
2023/05/16 01:13:46;;;;;;;3.50;2.10;;;;;;;21.20;36.54;99556.36;104411;1260;72192;-62
2023/05/16 01:16:22;;;;;;;2.50;2.30;;;;;;;21.14;36.83;99553.30;104467;1257;62626;-62
2023/05/16 01:18:58;;;;;;;1.90;1.80;;;;;;;21.12;36.84;99555.10;104423;1256;60167;-61
2023/05/16 01:21:43;;;;;;;1.80;1.70;;;;;;;21.15;36.72;99552.54;105836;1256;74032;-62
2023/05/16 01:24:21;;;;;;;1.90;1.80;;;;;;;21.13;36.80;99553.80;107096;1255;70073;-65
2023/05/16 01:26:48;;;;;;;2.00;1.70;;;;;;;21.10;36.98;99551.31;106926;1257;72854;-61
2023/05/16 01:29:16;;;;;;;2.30;1.90;;;;;;;21.06;36.85;99554.72;104315;1270;59767;-64
2023/05/16 01:31:43;;;;;;;2.30;2.00;;;;;;;21.35;36.30;99549.66;104447;1257;61113;-61
2023/05/16 01:34:11;;;;;;;3.00;2.00;;;;;;;21.26;36.82;99553.66;104412;1260;73479;-61
2023/05/16 01:37:01;;;;;;;4.20;2.10;;;;;;;21.10;36.89;99551.39;104925;1260;70452;-61
2023/05/16 01:39:52;;;;;;;3.20;2.00;;;;;;;21.11;36.79;99548.65;104481;1256;72532;-61
2023/05/16 01:42:19;;;;;;;2.70;2.50;;;;;;;21.05;37.01;99548.96;104266;1270;62258;-61
2023/05/16 01:44:59;;;;;;;3.30;2.00;;;;;;;20.99;36.92;99546.44;104238;1263;60551;-61
2023/05/16 01:47:26;;;;;;;3.70;2.70;;;;;;;20.97;37.08;99542.89;104314;1256;74388;-61
2023/05/16 01:50:09;;;;;;;2.70;1.80;;;;;;;20.99;36.98;99543.71;104259;1278;70042;-61
2023/05/16 01:52:46;;;;;;;2.70;2.30;;;;;;;20.98;36.76;99543.82;104033;1259;72577;-61
2023/05/16 01:55:20;;;;;;;2.40;2.10;;;;;;;20.88;37.04;99542.37;104502;1251;60560;-61
2023/05/16 01:57:48;;;;;;;2.80;2.00;;;;;;;20.82;37.19;99542.94;104419;1258;62689;-61
2023/05/16 02:00:15;;;;;;;2.40;2.10;;;;;;;20.79;36.97;99540.02;104739;1251;73293;-61
2023/05/16 02:02:42;;;;;;;2.00;1.80;;;;;;;20.80;36.81;99536.88;107513;1254;72078;-60
2023/05/16 02:05:09;;;;;;;2.20;1.90;;;;;;;20.78;37.01;99530.40;104493;1254;71952;-59
2023/05/16 02:07:36;;;;;;;3.50;1.80;;;;;;;20.79;37.00;99531.77;104375;1260;60724;-60
2023/05/16 02:10:04;;;;;;;2.40;1.90;;;;;;;21.05;36.55;99524.34;104350;1267;60573;-60
2023/05/16 02:12:34;;;;;;;2.10;1.90;;;;;;;21.12;36.53;99522.50;104330;1260;73369;-60
2023/05/16 02:15:01;;;;;;;1.90;1.80;;;;;;;21.78;35.36;99520.87;104394;1261;72013;-60
2023/05/16 02:17:28;;;;;;;2.70;2.20;;;;;;;21.91;34.97;99520.09;104327;1256;73059;-60
2023/05/16 02:19:56;;;;;;;;;;;;;;;21.94;35.00;99516.19;104245;1261;60581;-60
2023/05/16 02:22:23;;;;;;;2.00;1.80;;;;;;;22.00;34.95;99512.78;104402;1254;60532;-60
2023/05/16 02:24:52;;;;;;;2.70;1.80;;;;;;;22.00;34.74;99513.55;106132;1256;74273;-61
2023/05/16 02:27:20;;;;;;;1.80;1.60;;;;;;;21.95;34.91;99517.83;107953;1254;72181;-60
2023/05/16 02:29:47;;;;;;;1.90;1.80;;;;;;;21.97;35.06;99516.08;104532;1254;72752;-61
2023/05/16 02:32:14;;;;;;;2.50;1.70;;;;;;;21.96;34.88;99520.79;105225;1254;60595;-61
2023/05/16 02:34:41;;;;;;;2.20;2.00;;;;;;;21.98;35.16;99520.77;104834;1257;60725;-60
2023/05/16 02:37:09;;;;;;;2.20;1.90;;;;;;;21.98;35.27;99525.30;104763;1257;73120;-58
2023/05/16 02:39:39;;;;;;;2.70;2.10;;;;;;;21.99;34.96;99529.30;104424;1266;71095;-58
2023/05/16 02:42:06;;;;;;;2.40;1.80;;;;;;;21.98;35.08;99527.98;104696;1253;74458;-59
2023/05/16 02:44:33;;;;;;;5.30;2.50;;;;;;;21.98;35.11;99527.91;104575;1253;60594;-58
2023/05/16 02:47:00;;;;;;;2.40;2.00;;;;;;;21.98;34.85;99529.20;104372;1254;60459;-57
2023/05/16 02:49:27;;;;;;;3.00;1.80;;;;;;;21.96;34.77;99529.23;104614;1254;73370;-58
2023/05/16 02:51:54;;;;;;;2.50;1.70;;;;;;;21.96;34.88;99530.48;104574;1253;70218;-58
2023/05/16 02:54:21;;;;;;;3.90;1.80;;;;;;;21.95;34.70;99530.95;104346;1255;73397;-58
2023/05/16 02:56:49;;;;;;;2.00;1.80;;;;;;;21.97;34.59;99529.31;104654;1257;61187;-58
2023/05/16 02:59:18;;;;;;;1.70;1.60;;;;;;;21.96;34.51;99529.77;104335;1254;60648;-58
2023/05/16 03:01:45;;;;;;;3.90;2.10;;;;;;;21.92;34.58;99528.34;104387;1255;75120;-57
2023/05/16 03:04:12;;;;;;;2.60;2.20;;;;;;;21.89;34.65;99530.20;104535;1257;71068;-58
2023/05/16 03:06:40;;;;;;;6.10;2.10;;;;;;;21.88;34.61;99531.19;104340;1257;73067;-58
2023/05/16 03:09:07;;;;;;;2.50;1.80;;;;;;;21.89;34.78;99529.19;104450;1252;60645;-58
2023/05/16 03:11:35;;;;;;;2.90;1.70;;;;;;;21.88;34.72;99531.23;104422;1255;60578;-57
2023/05/16 03:14:02;;;;;;;2.20;2.00;;;;;;;21.87;34.70;99528.06;104601;1258;74470;-58
2023/05/16 03:16:30;;;;;;;2.40;1.90;;;;;;;21.87;34.77;99528.25;104498;1259;70025;-57
2023/05/16 03:18:57;;;;;;;2.30;2.10;;;;;;;21.88;34.72;99527.47;104496;1257;72319;-57
2023/05/16 03:21:26;;;;;;;2.10;2.00;;;;;;;21.90;34.82;99524.45;104402;1260;60861;-58
2023/05/16 03:23:53;;;;;;;2.90;1.90;;;;;;;21.92;34.70;99519.09;104374;1267;60538;-60
2023/05/16 03:26:21;;;;;;;2.00;1.90;;;;;;;21.97;34.58;99513.06;106771;1252;73812;-59
2023/05/16 03:28:50;;;;;;;2.30;1.60;;;;;;;21.99;34.57;99512.33;106440;1258;70019;-58
2023/05/16 03:31:17;;;;;;;4.50;2.40;;;;;;;21.98;34.58;99512.39;105018;1254;73103;-58
2023/05/16 03:33:45;;;;;;;2.30;2.20;;;;;;;22.00;34.52;99511.38;104790;1256;60637;-58
2023/05/16 03:36:12;;;;;;;1.90;1.80;;;;;;;22.02;34.67;99511.56;104478;1257;60562;-59
2023/05/16 03:38:39;;;;;;;2.80;1.90;;;;;;;22.02;34.70;99511.04;104623;1267;74364;-58
2023/05/16 03:41:06;;;;;;;2.90;2.00;;;;;;;22.03;34.59;99515.77;104857;1266;70368;-59
2023/05/16 03:43:34;;;;;;;1.80;1.70;;;;;;;22.01;34.38;99520.70;104415;1266;73379;-59
2023/05/16 03:46:01;;;;;;;2.30;2.10;;;;;;;22.06;34.43;99524.74;104361;1257;60532;-59
2023/05/16 03:48:28;;;;;;;1.90;1.70;;;;;;;22.06;34.66;99527.18;104652;1251;60703;-59
2023/05/16 03:50:56;;;;;;;2.30;1.90;;;;;;;22.08;34.53;99529.20;104577;1257;74522;-58
2023/05/16 03:53:23;;;;;;;2.00;1.90;;;;;;;22.09;34.37;99531.93;104433;1267;70058;-59
2023/05/16 03:55:50;;;;;;;2.00;1.90;;;;;;;22.07;34.25;99536.92;104373;1267;73149;-58
2023/05/16 03:58:17;;;;;;;3.20;2.20;;;;;;;22.06;34.37;99537.88;104266;1268;61228;-59
2023/05/16 04:00:45;;;;;;;2.10;1.90;;;;;;;22.07;34.19;99545.05;104647;1253;60447;-59
2023/05/16 04:03:13;;;;;;;2.70;1.90;;;;;;;22.06;34.32;99547.74;107031;1251;74040;-59
2023/05/16 04:05:40;;;;;;;2.60;2.00;;;;;;;22.11;34.17;99556.34;108388;1251;71872;-60
2023/05/16 04:08:07;;;;;;;2.30;2.00;;;;;;;22.14;34.31;99560.42;104539;1257;75301;-59
2023/05/16 04:10:34;;;;;;;2.10;1.90;;;;;;;22.16;34.14;99561.32;104947;1251;60514;-60
2023/05/16 04:13:02;;;;;;;2.40;1.90;;;;;;;22.19;33.93;99568.48;104740;1267;60079;-60
2023/05/16 04:15:29;;;;;;;3.80;2.00;;;;;;;22.16;34.06;99570.00;104360;1257;73675;-59
2023/05/16 04:17:56;;;;;;;3.60;1.80;;;;;;;22.19;34.08;99577.45;104557;1256;69215;-60
2023/05/16 04:20:24;;;;;;;2.00;1.70;;;;;;;22.19;33.90;99581.76;104464;1256;72957;-59
2023/05/16 04:22:51;;;;;;;2.40;2.20;;;;;;;22.17;34.03;99583.55;104530;1257;60436;-60
2023/05/16 04:25:18;;;;;;;2.30;1.80;;;;;;;22.19;34.08;99584.40;104549;1257;60837;-59
2023/05/16 04:27:45;;;;;;;2.40;2.10;;;;;;;22.19;33.91;99588.66;107897;1254;73477;-59
2023/05/16 04:30:13;;;;;;;2.50;1.90;;;;;;;22.22;33.88;99593.96;105617;1250;69618;-59
2023/05/16 04:32:40;;;;;;;2.20;2.00;;;;;;;22.24;34.01;99597.73;104654;1269;74182;-59
2023/05/16 04:35:08;;;;;;;3.10;1.90;;;;;;;22.20;33.86;99593.76;104663;1256;60723;-59
2023/05/16 04:37:35;;;;;;;2.90;1.90;;;;;;;22.22;33.86;99594.34;104830;1253;61128;-59
2023/05/16 04:40:03;;;;;;;1.70;1.60;;;;;;;22.20;33.81;99595.02;104404;1257;74268;-59
2023/05/16 04:42:30;;;;;;;;;;;;;;;22.21;33.79;99597.98;104796;1259;70039;-59
2023/05/16 04:44:57;;;;;;;2.40;1.40;;;;;;;22.25;33.59;99601.55;104376;1256;72171;-59
2023/05/16 04:47:25;;;;;;;2.00;1.80;;;;;;;22.21;33.64;99607.84;104890;1250;61238;-62
2023/05/16 04:49:52;;;;;;;2.10;1.90;;;;;;;22.20;33.57;99608.75;104352;1251;60764;-59
2023/05/16 04:52:19;;;;;;;1.90;1.80;;;;;;;22.19;33.73;99602.22;104349;1267;76345;-59
2023/05/16 04:54:49;;;;;;;2.00;1.90;;;;;;;22.16;33.69;99600.52;104762;1254;70219;-59
2023/05/16 04:57:17;;;;;;;1.80;1.70;;;;;;;22.18;33.78;99599.12;104322;1266;73636;-59
2023/05/16 04:59:44;;;;;;;2.00;1.90;;;;;;;22.24;33.79;99595.60;104385;1252;60557;-59
2023/05/16 05:02:11;;;;;;;1.80;1.70;;;;;;;22.26;33.74;99596.33;104839;1257;64063;-59
2023/05/16 05:04:38;;;;;;;2.00;1.90;;;;;;;22.25;33.94;99597.22;104596;1265;74684;-58
2023/05/16 05:07:06;;;;;;;3.30;1.80;;;;;;;22.26;33.82;99592.88;104624;1257;70382;-59
2023/05/16 05:09:34;;;;;;;2.40;2.00;;;;;;;22.27;33.92;99594.00;104508;1250;72799;-59
2023/05/16 05:12:01;;;;;;;2.30;2.10;;;;;;;22.27;34.22;99591.52;104847;1257;60541;-59
2023/05/16 05:14:28;;;;;;;3.60;2.00;;;;;;;22.28;34.10;99585.21;104304;1257;60651;-59
2023/05/16 05:16:55;;;;;;;2.80;1.60;;;;;;;22.30;34.48;99587.36;104395;1272;74367;-58
2023/05/16 05:19:23;;;;;;;1.90;1.80;;;;;;;22.27;34.38;99594.44;104329;1267;70081;-58
2023/05/16 05:21:50;;;;;;;1.70;1.60;;;;;;;22.27;34.05;99592.80;104496;1256;72925;-59
2023/05/16 05:24:18;;;;;;;3.10;2.10;;;;;;;22.27;34.06;99591.36;104287;1273;63353;-58
2023/05/16 05:26:45;;;;;;;2.50;2.20;;;;;;;22.25;34.44;99592.26;105378;1251;60761;-59
2023/05/16 05:29:12;;;;;;;4.60;1.80;;;;;;;22.25;34.71;99590.96;108255;1250;74145;-59
2023/05/16 05:31:39;;;;;;;2.40;2.20;;;;;;;22.24;35.70;99589.15;104526;1266;69518;-59
2023/05/16 05:34:06;;;;;;;2.10;2.00;;;;;;;22.20;35.55;99592.35;104749;1257;72292;-60
2023/05/16 05:36:34;;;;;;;2.70;2.10;;;;;;;22.15;35.88;99592.10;104345;1266;60588;-59
2023/05/16 05:39:01;;;;;;;4.40;2.00;;;;;;;22.10;36.05;99596.45;104546;1257;60032;-59
2023/05/16 05:41:28;;;;;;;2.20;2.00;;;;;;;22.04;36.36;99609.29;104469;1260;74154;-59
2023/05/16 05:43:55;;;;;;;1.90;1.70;;;;;;;21.99;36.17;99614.75;104921;1257;69545;-58
2023/05/16 05:46:23;;;;;;;3.00;2.20;;;;;;;21.94;36.30;99614.34;104643;1254;73513;-59
2023/05/16 05:48:50;;;;;;;;;;;;;;;21.88;37.29;99619.51;105015;1256;60663;-57
2023/05/16 05:51:18;;;;;;;2.50;1.90;;;;;;;21.87;37.02;99618.94;104986;1256;61387;-59
2023/05/16 05:53:45;;;;;;;2.40;2.20;;;;;;;21.79;36.90;99619.80;104916;1251;72858;-59
2023/05/16 05:56:12;;;;;;;1.90;1.80;;;;;;;21.76;37.59;99615.23;104721;1257;70503;-60
2023/05/16 05:58:40;;;;;;;1.90;1.80;;;;;;;21.77;38.21;99612.33;104639;1256;75641;-59
2023/05/16 06:01:09;;;;;;;1.80;1.70;;;;;;;21.74;38.66;99603.11;104869;1251;60533;-60
2023/05/16 06:03:37;;;;;;;3.20;2.20;;;;;;;21.69;37.97;99599.08;104653;1257;60560;-59
2023/05/16 06:06:04;;;;;;;2.90;2.10;;;;;;;21.66;37.74;99602.02;107005;1250;73679;-60
2023/05/16 06:08:32;;;;;;;3.30;1.80;;;;;;;21.67;38.46;99604.27;108455;1250;69947;-57
2023/05/16 06:10:59;;;;;;;2.50;2.10;;;;;;;21.67;38.39;99602.69;105802;1256;72954;-57
2023/05/16 06:13:26;;;;;;;2.80;2.00;;;;;;;21.70;38.97;99598.27;104614;1257;62886;-61
2023/05/16 06:15:54;;;;;;;3.60;2.00;;;;;;;21.76;38.93;99596.32;105254;1255;62606;-56
2023/05/16 06:18:21;;;;;;;1.90;1.70;;;;;;;21.78;38.33;99594.67;104374;1252;76158;-59
2023/05/16 06:20:48;;;;;;;2.00;1.90;;;;;;;21.82;38.62;99593.50;104684;1250;72083;-59
2023/05/16 06:23:15;;;;;;;3.30;1.90;;;;;;;21.82;38.48;99595.27;104403;1255;72491;-59
2023/05/16 06:25:43;;;;;;;1.80;1.70;;;;;;;21.84;38.57;99596.84;104407;1259;61025;-60
2023/05/16 06:28:10;;;;;;;2.20;2.00;;;;;;;21.81;38.62;99593.94;104353;1270;60633;-60
2023/05/16 06:30:38;;;;;;;1.80;1.70;;;;;;;21.63;38.59;99590.39;105104;1256;74784;-59
2023/05/16 06:33:05;;;;;;;2.50;2.30;;;;;;;21.25;39.95;99585.31;104419;1256;69485;-59
2023/05/16 06:35:32;;;;;;;6.10;2.00;;;;;;;21.21;39.73;99578.92;104487;1256;73145;-59
2023/05/16 06:37:59;;;;;;;2.30;2.10;;;;;;;21.27;39.86;99577.81;104429;1252;60948;-60
2023/05/16 06:40:26;;;;;;;2.60;2.30;;;;;;;21.31;40.17;99578.73;104673;1251;62034;-61
2023/05/16 06:42:53;;;;;;;2.70;2.00;;;;;;;21.35;39.99;99575.37;104286;1273;73200;-60
2023/05/16 06:45:21;;;;;;;2.10;1.90;;;;;;;21.38;39.78;99565.10;104318;1257;70524;-59
2023/05/16 06:47:48;;;;;;;2.70;2.20;;;;;;;21.40;40.17;99565.67;104825;1257;73138;-59
2023/05/16 06:50:15;;;;;;;3.00;1.90;;;;;;;21.43;39.80;99574.79;104462;1268;60578;-60
2023/05/16 06:52:43;;;;;;;;;;;;;;;21.43;40.41;99576.06;104585;1256;60562;-59
2023/05/16 06:55:11;;;;;;;1.80;1.70;;;;;;;21.52;40.25;99572.83;104378;1257;74824;-60
2023/05/16 06:57:38;;;;;;;;;;;;;;;21.93;39.31;99564.62;104403;1256;69913;-61
2023/05/16 07:00:07;;;;;;;2.80;1.70;;;;;;;22.11;38.76;99567.28;104306;1262;72925;-60
2023/05/16 07:02:34;;;;;;;2.10;1.90;;;;;;;22.16;38.65;99568.09;104538;1257;63117;-60
2023/05/16 07:05:01;;;;;;;2.50;2.00;;;;;;;22.27;38.57;99569.95;104339;1261;62120;-60
2023/05/16 07:07:29;;;;;;;8.40;2.20;;;;;;;22.29;38.88;99571.17;104504;1267;74936;-58
2023/05/16 07:09:56;;;;;;;2.10;2.00;;;;;;;22.33;38.69;99571.52;104299;1273;72102;-59
2023/05/16 07:12:23;;;;;;;2.60;2.40;;;;;;;22.36;38.43;99574.77;104678;1256;73095;-60
2023/05/16 07:14:50;;;;;;;2.60;2.40;;;;;;;22.37;38.44;99576.90;104948;1257;63136;-59
2023/05/16 07:17:18;;;;;;;3.00;2.10;;;;;;;22.40;38.63;99574.10;104541;1257;61128;-58
2023/05/16 07:19:45;;;;;;;5.00;2.00;;;;;;;22.52;38.13;99568.73;104414;1257;74352;-58
2023/05/16 07:22:12;;;;;;;2.50;2.00;;;;;;;22.62;38.06;99571.30;104582;1258;71839;-60
2023/05/16 07:24:39;;;;;;;3.20;2.10;;;;;;;22.61;38.08;99570.90;104594;1264;72981;-58
2023/05/16 07:27:07;;;;;;;2.40;2.20;;;;;;;22.57;38.13;99575.20;104369;1273;63102;-57
2023/05/16 07:29:36;;;;;;;5.60;2.40;;;;;;;22.62;37.92;99571.99;104491;1257;60905;-57
2023/05/16 07:32:03;;;;;;;2.80;2.20;;;;;;;22.63;37.52;99571.91;105098;1251;73535;-58
2023/05/16 07:34:31;;;;;;;2.70;2.50;;;;;;;22.67;37.64;99568.73;104544;1257;69995;-57
2023/05/16 07:36:58;;;;;;;2.30;2.10;;;;;;;22.78;37.60;99566.27;104584;1267;73272;-57
2023/05/16 07:39:25;;;;;;;2.30;2.10;;;;;;;22.79;37.64;99566.90;104588;1254;60592;-61
2023/05/16 07:41:52;;;;;;;2.30;2.10;;;;;;;22.75;37.67;99574.36;104638;1260;60778;-57
2023/05/16 07:44:20;;;;;;;4.10;2.20;;;;;;;22.74;37.61;99580.17;104325;1274;74060;-58
2023/05/16 07:46:47;;;;;;;2.50;2.30;;;;;;;22.77;37.48;99585.24;104449;1256;70015;-58
2023/05/16 07:49:14;;;;;;;2.50;2.30;;;;;;;22.76;37.25;99592.36;104655;1255;72931;-58
2023/05/16 07:51:42;;;;;;;2.40;2.20;;;;;;;22.73;37.20;99595.63;104655;1257;60760;-58
2023/05/16 07:54:09;;;;;;;2.30;2.10;;;;;;;22.73;37.30;99599.23;104734;1256;61848;-59
2023/05/16 07:56:36;;;;;;;2.50;2.20;;;;;;;22.74;37.20;99598.37;104456;1256;74911;-58
2023/05/16 07:59:04;;;;;;;3.70;2.20;;;;;;;22.77;37.42;99593.31;104518;1256;69949;-60
2023/05/16 08:01:31;;;;;;;;;;;;;;;22.79;37.23;99579.71;104603;1257;73679;-58
2023/05/16 08:03:59;;;;;;;6.40;2.20;;;;;;;22.85;37.27;99563.48;104650;1257;62249;-58
2023/05/16 08:06:26;;;;;;;3.70;2.20;;;;;;;22.83;37.21;99563.76;104708;1257;60975;-60
2023/05/16 08:08:54;;;;;;;4.20;2.20;;;;;;;22.82;37.56;99576.01;105402;1254;73701;-58
2023/05/16 08:11:21;;;;;;;3.40;2.50;;;;;;;22.88;37.63;99595.14;108480;1256;70053;-59
2023/05/16 08:13:48;;;;;;;2.40;2.20;;;;;;;22.86;37.73;99600.48;106780;1256;74983;-59
2023/05/16 08:16:16;;;;;;;2.30;2.20;;;;;;;22.86;37.68;99608.16;104520;1258;59957;-59
2023/05/16 08:18:43;;;;;;;3.20;2.40;;;;;;;22.88;37.91;99614.27;105139;1256;60652;-58
2023/05/16 08:21:12;;;;;;;2.60;2.40;;;;;;;22.99;37.75;99616.85;104790;1257;76084;-61
2023/05/16 08:23:40;;;;;;;5.80;2.90;;;;;;;23.04;37.90;99618.30;104706;1257;71677;-58
2023/05/16 08:26:07;;;;;;;2.60;2.20;;;;;;;23.12;37.97;99618.23;104570;1259;72966;-62
2023/05/16 08:28:34;;;;;;;2.80;2.60;;;;;;;23.21;37.67;99619.48;104492;1260;60584;-58
2023/05/16 08:31:01;;;;;;;4.20;2.70;;;;;;;23.29;37.70;99620.54;104482;1255;61038;-59
2023/05/16 08:33:29;;;;;;;2.90;2.70;;;;;;;23.38;37.47;99612.77;104805;1254;74291;-59
2023/05/16 08:35:56;;;;;;;2.70;2.50;;;;;;;23.47;37.78;99606.67;104580;1257;69876;-59
2023/05/16 08:38:23;;;;;;;2.80;2.50;;;;;;;23.55;37.52;99602.50;104717;1264;74833;-59
2023/05/16 08:40:50;;;;;;;4.60;2.40;;;;;;;23.64;37.57;99600.38;104534;1260;60518;-59
2023/05/16 08:43:17;;;;;;;3.50;2.70;;;;;;;23.73;37.64;99603.55;104626;1258;60555;-61
2023/05/16 08:45:45;;;;;;;2.50;2.30;;;;;;;23.81;37.55;99603.37;104419;1260;76409;-58
2023/05/16 08:48:12;;;;;;;3.10;2.80;;;;;;;23.89;37.54;99602.17;104531;1268;70255;-60
2023/05/16 08:50:41;;;;;;;2.50;2.30;;;;;;;23.99;37.61;99599.30;104301;1259;73945;-58
2023/05/16 08:53:09;;;;;;;3.70;2.50;;;;;;;24.09;37.77;99600.27;104455;1259;62325;-58
2023/05/16 08:55:36;;;;;;;;;;;;;;;24.18;37.49;99596.80;104371;1259;62953;-58
2023/05/16 08:58:03;;;;;;;2.60;2.40;;;;;;;24.26;37.15;99592.77;104856;1254;74259;-59
2023/05/16 09:00:31;;;;;;;3.10;2.40;;;;;;;24.24;36.43;99592.27;104663;1266;70016;-60
2023/05/16 09:02:58;;;;;;;3.40;2.40;;;;;;;24.26;35.98;99587.59;104783;1259;74052;-59
2023/05/16 09:05:25;;;;;;;4.40;2.40;;;;;;;24.28;35.53;99588.82;104344;1254;60649;-64
2023/05/16 09:07:54;;;;;;;2.50;2.20;;;;;;;24.28;35.08;99589.90;104625;1259;62327;-61
2023/05/16 09:10:21;;;;;;;3.00;2.40;;;;;;;24.20;34.87;99590.34;104920;1252;73806;-60
2023/05/16 09:12:48;;;;;;;5.70;2.20;;;;;;;24.19;34.93;99591.70;104469;1270;69508;-60
2023/05/16 09:15:17;;;;;;;1.80;1.70;;;;;;;24.18;34.31;99594.73;104501;1267;72088;-60
2023/05/16 09:17:45;;;;;;;2.40;2.20;;;;;;;24.16;34.12;99595.63;104311;1257;60609;-61
2023/05/16 09:20:17;;;;;;;3.90;2.30;;;;;;;24.15;34.27;99603.98;104424;1270;61344;-59
2023/05/16 09:22:51;;;;;;;2.40;2.20;;;;;;;24.17;34.32;99597.84;104409;1270;74474;-59
2023/05/16 09:25:20;;;;;;;4.20;2.30;;;;;;;24.12;33.87;99602.45;104443;1259;70976;-59
2023/05/16 09:28:00;;;;;;;2.70;2.50;;;;;;;24.18;34.15;99605.08;104333;1257;74342;-61
2023/05/16 09:30:30;;;;;;;3.40;2.20;;;;;;;24.27;34.04;99600.57;104545;1260;62387;-59
2023/05/16 09:32:58;;;;;;;3.80;2.50;;;;;;;24.37;33.87;99600.08;105080;1267;62319;-61
2023/05/16 09:35:25;;;;;;;4.70;2.50;;;;;;;24.40;33.76;99599.13;104887;1254;74618;-59
2023/05/16 09:37:55;;;;;;;2.90;2.30;;;;;;;24.42;33.59;99604.05;104729;1260;70442;-60
2023/05/16 09:40:23;;;;;;;4.90;2.40;;;;;;;24.44;33.59;99606.25;104606;1260;72396;-59
2023/05/16 09:43:05;;;;;;;2.30;2.20;;;;;;;24.38;33.55;99608.04;104907;1257;61283;-60
2023/05/16 09:48:27;;;;;;;3.70;2.10;;;;;;;23.62;35.12;99611.11;101568;1296;600795;-60
2023/05/16 09:50:55;;;;;;;2.70;2.30;;;;;;;24.47;33.37;99610.41;103623;1272;60802;-60
2023/05/16 09:53:26;;;;;;;5.10;2.40;;;;;;;24.49;33.40;99613.90;103770;1266;63488;-59
2023/05/16 09:56:03;;;;;;;2.90;2.30;;;;;;;24.44;33.05;99615.30;103625;1272;72132;-61
2023/05/16 09:58:31;;;;;;;2.00;1.90;;;;;;;24.48;33.49;99618.88;103723;1279;70951;-59
2023/05/16 10:00:58;;;;;;;;;;;;;;;24.52;33.31;99624.84;103274;1270;354957;-59
2023/05/16 10:03:26;;;;;;;2.30;2.20;;;;;;;24.49;33.53;99617.58;103820;1270;61280;-59
2023/05/16 10:05:54;;;;;;;4.30;2.40;;;;;;;24.33;33.38;99613.44;104347;1274;60110;-59
2023/05/16 10:08:25;;;;;;;2.30;2.10;;;;;;;24.25;33.69;99617.05;104402;1263;73737;-59
2023/05/16 10:10:53;;;;;;;2.20;1.90;;;;;;;24.26;33.72;99614.09;104242;1261;70231;-59
2023/05/16 10:13:22;;;;;;;3.30;2.30;;;;;;;24.27;33.70;99617.96;104568;1257;71865;-59
2023/05/16 10:15:54;;;;;;;6.80;2.70;;;;;;;24.26;33.70;99615.57;104804;1257;60270;-59
2023/05/16 10:18:22;;;;;;;5.40;2.10;;;;;;;24.22;33.57;99613.45;104660;1257;59928;-60
2023/05/16 10:20:51;;;;;;;3.40;2.10;;;;;;;24.16;33.61;99614.37;104759;1262;75316;-59
2023/05/16 10:23:20;;;;;;;2.50;2.30;;;;;;;24.12;33.80;99610.00;104876;1257;69199;-61
2023/05/16 10:25:47;;;;;;;7.20;2.50;;;;;;;24.07;33.75;99615.30;104709;1268;72283;-60
2023/05/16 10:28:15;;;;;;;2.40;2.20;;;;;;;24.06;33.83;99613.41;104475;1270;60896;-59
2023/05/16 10:30:44;;;;;;;3.90;2.10;;;;;;;23.98;33.75;99608.50;104776;1276;60920;-60
2023/05/16 10:33:15;;;;;;;4.50;2.10;;;;;;;23.98;34.08;99604.89;104904;1257;73392;-59
2023/05/16 10:35:43;;;;;;;2.80;2.30;;;;;;;23.88;33.63;99597.83;104582;1254;71036;-60
2023/05/16 10:38:12;;;;;;;2.40;2.20;;;;;;;23.81;34.09;99598.58;104377;1261;73699;-60
2023/05/16 10:40:39;;;;;;;3.30;2.30;;;;;;;23.80;34.19;99603.66;104898;1254;62050;-58
2023/05/16 10:43:08;;;;;;;2.50;2.30;;;;;;;23.81;34.10;99602.45;104697;1251;62500;-60
2023/05/16 10:45:40;;;;;;;2.40;2.20;;;;;;;23.83;34.15;99593.91;104381;1251;73590;-60
2023/05/16 10:48:09;;;;;;;2.00;1.90;;;;;;;23.85;33.91;99596.68;104816;1257;71675;-60
2023/05/16 10:50:37;;;;;;;5.30;2.20;;;;;;;23.91;34.03;99596.08;104540;1259;72177;-60
2023/05/16 10:53:17;;;;;;;12.20;2.70;;;;;;;23.96;34.01;99589.88;104949;1257;60076;-60
2023/05/16 10:56:00;;;;;;;7.70;2.30;;;;;;;24.07;34.01;99584.31;104626;1267;61825;-61
2023/05/16 10:58:33;;;;;;;3.20;2.20;;;;;;;24.22;33.89;99587.30;104665;1259;75394;-61
2023/05/16 11:01:40;;;;;;;3.10;2.30;;;;;;;24.34;33.90;99592.16;104438;1257;70246;-59
2023/05/16 11:04:11;;;;;;;2.80;2.10;;;;;;;24.50;33.75;99589.11;104227;1257;71326;-59
2023/05/16 11:06:41;;;;;;;2.20;2.10;;;;;;;24.60;33.67;99587.05;104117;1264;61394;-60
2023/05/16 11:09:14;;;;;;;2.30;2.20;;;;;;;24.66;33.74;99581.27;104125;1273;62729;-59
2023/05/16 11:11:47;;;;;;;2.80;2.50;;;;;;;24.75;33.88;99582.84;104596;1253;75537;-61
2023/05/16 11:14:41;;;;;;;4.50;2.20;;;;;;;24.81;33.88;99578.05;104763;1254;70145;-59
2023/05/16 11:17:20;;;;;;;5.30;2.20;;;;;;;24.87;33.82;99581.38;104627;1251;72868;-60
2023/05/16 11:19:54;;;;;;;2.80;2.20;;;;;;;24.88;33.58;99576.86;104577;1258;61005;-59
2023/05/16 11:22:23;;;;;;;3.50;1.90;;;;;;;24.87;33.77;99576.05;104535;1257;62800;-60
2023/05/16 11:25:00;;;;;;;2.80;2.50;;;;;;;24.89;33.77;99576.67;104641;1258;73340;-60
2023/05/16 11:27:28;;;;;;;2.40;2.20;;;;;;;24.95;33.84;99574.69;104445;1257;69360;-62
2023/05/16 11:30:05;;;;;;;2.40;2.10;;;;;;;24.94;33.67;99569.10;104608;1255;72817;-61
2023/05/16 11:32:33;;;;;;;3.60;2.50;;;;;;;24.94;33.50;99566.92;104582;1254;62531;-61
2023/05/16 11:35:01;;;;;;;2.90;2.40;;;;;;;24.96;33.52;99562.92;104650;1257;63304;-58
2023/05/16 11:37:28;;;;;;;2.40;2.10;;;;;;;24.94;33.66;99563.80;104380;1259;74345;-58